This is the latest recevied weather packets stored in our database for station/object KB2KMM. If no packets are shown the sender has not sent any weather packets the latest 1 day(s).
| Time | Temp. | Humidity | Pressure | Rain* | Wind** | Luminosity | Snow |
|---|---|---|---|---|---|---|---|
| 1836274680 | 19.44° C | 60% | 1019 hPa | 0 mm | 0.89 m/s, 15° | - | - |
| 1836274530 | 19.44° C | 57% | 1019.3 hPa | 0 mm | 0.45 m/s, 32° | - | - |
| 1836274386 | 19.44° C | 61% | 1019 hPa | 0 mm | 0.89 m/s, 12° | - | - |
| 1836274236 | 19.44° C | 58% | 1019.1 hPa | 0 mm | 0.89 m/s, 36° | - | - |
| 1836274080 | 19.44° C | 63% | 1019 hPa | 0 mm | 0.45 m/s, 16° | - | - |
| 1778052305 | 13.33° C | 100% | 1011.7 hPa | 0 mm | 2.24 m/s, 283° | - | - |
| 1778052006 | 13.33° C | 100% | 1011.8 hPa | 0 mm | 1.34 m/s, 282° | - | - |
| 1778051715 | 13.33° C | 100% | 1011.8 hPa | 0 mm | 1.34 m/s, 319° | - | - |
| 1778051405 | 13.33° C | 100% | 1011.8 hPa | 0 mm | 3.13 m/s, 285° | - | - |
| 1778051105 | 13.33° C | 100% | 1011.7 hPa | 0 mm | 2.68 m/s, 293° | - | - |
| 1778050805 | 13.33° C | 100% | 1011.8 hPa | 0 mm | 2.24 m/s, 276° | - | - |
| 1778050505 | 13.33° C | 100% | 1011.8 hPa | 0 mm | 1.34 m/s, 271° | - | - |
| 1778050205 | 13.33° C | 100% | 1011.7 hPa | 0 mm | 1.34 m/s, 269° | - | - |
| 1778049905 | 13.33° C | 100% | 1011.6 hPa | 0 mm | 2.68 m/s, 271° | - | - |
| 1778049605 | 13.33° C | 100% | 1011.7 hPa | 0 mm | 1.79 m/s, 258° | - | - |
| 1778049305 | 13.33° C | 100% | 1011.6 hPa | 0 mm | 2.68 m/s, 270° | - | - |
| 1778049005 | 13.33° C | 99% | 1011.6 hPa | 0 mm | 2.24 m/s, 269° | - | - |
| 1778048705 | 13.33° C | 99% | 1011.7 hPa | 0 mm | 2.68 m/s, 265° | - | - |
| 1778048406 | 13.33° C | 99% | 1011.7 hPa | 0 mm | 2.24 m/s, 282° | - | - |
| 1778048105 | 13.89° C | 99% | 1011.6 hPa | 0 mm | 2.24 m/s, 258° | - | - |
| 1778047805 | 13.89° C | 99% | 1011.6 hPa | 0 mm | 2.68 m/s, 280° | - | - |
| 1778047505 | 13.89° C | 99% | 1011.6 hPa | 0 mm | 2.24 m/s, 249° | - | - |
| 1778047205 | 13.89° C | 99% | 1011.6 hPa | 0 mm | 1.34 m/s, 282° | - | - |
| 1778046905 | 13.89° C | 99% | 1011.6 hPa | 0 mm | 2.24 m/s, 260° | - | - |
| 1778046606 | 13.89° C | 99% | 1011.7 hPa | 0 mm | 3.13 m/s, 291° | - | - |
* Rain latest hour (hover to see other rain measurements)
** Current wind speed in m/s (hover to see current wind gust speed)